createdAt,value
2018-06-29T00:01:47.535Z,52.17
2018-06-29T00:04:50.901Z,52.42
2018-06-29T00:07:54.238Z,52.54
2018-06-29T00:10:57.443Z,52.49
2018-06-29T00:14:00.677Z,52.27
2018-06-29T00:17:03.899Z,52.85
2018-06-29T00:20:07.075Z,52.93
2018-06-29T00:23:10.393Z,53.24
2018-06-29T00:26:13.595Z,52.98
2018-06-29T00:29:17.038Z,52.59
2018-06-29T00:32:20.074Z,53.26
2018-06-29T00:35:23.194Z,53.21
2018-06-29T00:38:26.398Z,53.22
2018-06-29T00:41:29.604Z,53.04
2018-06-29T00:44:32.817Z,53.29
2018-06-29T00:47:35.981Z,53.87
2018-06-29T00:50:39.157Z,53.76
2018-06-29T00:53:42.354Z,53.73
2018-06-29T00:56:45.495Z,53.39
2018-06-29T00:59:48.651Z,53.19
2018-06-29T01:02:51.846Z,53.79
2018-06-29T01:05:55.010Z,53.86
2018-06-29T01:08:58.342Z,54.05
2018-06-29T01:12:01.526Z,53.99
2018-06-29T01:15:04.843Z,54.15
2018-06-29T01:18:08.235Z,54.36
2018-06-29T01:21:11.502Z,54.49
2018-06-29T01:24:14.702Z,54.52
2018-06-29T01:27:17.951Z,54.58
2018-06-29T01:30:21.090Z,54.59
2018-06-29T01:33:24.330Z,54.50
2018-06-29T01:36:27.493Z,54.16
2018-06-29T01:39:30.682Z,54.87
2018-06-29T01:42:33.923Z,55.08
2018-06-29T01:45:37.115Z,54.83
2018-06-29T01:48:40.435Z,55.10
2018-06-29T01:51:43.677Z,55.41
2018-06-29T01:54:46.939Z,55.40
2018-06-29T01:57:50.075Z,55.38
2018-06-29T02:00:53.354Z,55.40
2018-06-29T02:03:57.435Z,55.30
2018-06-29T02:07:00.583Z,55.38
2018-06-29T02:10:03.874Z,55.54
2018-06-29T02:13:07.103Z,56.08
2018-06-29T02:16:10.376Z,56.77
2018-06-29T02:19:13.566Z,56.88
2018-06-29T02:22:16.701Z,56.62
2018-06-29T02:25:19.866Z,57.19
2018-06-29T02:28:23.596Z,57.01
2018-06-29T02:31:26.859Z,57.10
2018-06-29T02:34:30.060Z,57.16
2018-06-29T02:37:33.319Z,57.65
2018-06-29T02:40:36.573Z,57.96
2018-06-29T02:43:39.787Z,58.19
2018-06-29T02:46:42.918Z,58.08
2018-06-29T02:49:46.140Z,58.55
2018-06-29T02:52:49.330Z,59.21
2018-06-29T02:55:52.550Z,58.90
2018-06-29T02:58:56.390Z,58.14
2018-06-29T03:02:00.548Z,57.74
2018-06-29T03:05:04.575Z,57.88
2018-06-29T03:08:07.774Z,57.96
2018-06-29T03:11:10.942Z,58.05
2018-06-29T03:14:14.154Z,58.22
2018-06-29T03:17:17.303Z,58.50
2018-06-29T03:20:20.524Z,57.34
2018-06-29T03:23:23.699Z,58.48
2018-06-29T03:26:26.859Z,59.04
2018-06-29T03:29:30.026Z,58.21
2018-06-29T03:32:33.207Z,58.34
2018-06-29T03:35:36.518Z,58.67
2018-06-29T03:38:39.670Z,59.09
2018-06-29T03:41:42.846Z,58.82
2018-06-29T03:44:46.078Z,58.27
2018-06-29T03:47:49.246Z,57.91
2018-06-29T03:50:52.434Z,57.96
2018-06-29T03:53:55.639Z,58.95
2018-06-29T03:56:58.782Z,58.15
2018-06-29T04:00:01.996Z,58.56
2018-06-29T04:03:06.913Z,57.36
2018-06-29T04:06:10.167Z,58.01
2018-06-29T04:09:13.358Z,57.72
2018-06-29T04:12:16.499Z,58.19
2018-06-29T04:15:19.729Z,58.14
2018-06-29T04:18:22.963Z,58.02
2018-06-29T04:21:26.138Z,58.06
2018-06-29T04:24:29.338Z,57.42
2018-06-29T04:27:34.009Z,57.57
2018-06-29T04:30:37.208Z,58.28
2018-06-29T04:33:40.361Z,58.63
2018-06-29T04:36:43.579Z,57.73
2018-06-29T04:39:46.760Z,57.73
2018-06-29T04:42:49.998Z,57.98
2018-06-29T04:45:53.235Z,58.64
2018-06-29T04:48:56.730Z,58.57
2018-06-29T04:52:01.051Z,58.11
2018-06-29T04:55:04.379Z,58.20
2018-06-29T04:58:07.814Z,58.17
2018-06-29T05:01:11.014Z,57.59
2018-06-29T05:04:14.304Z,57.83
2018-06-29T05:07:17.537Z,57.48
2018-06-29T05:10:21.280Z,57.95
2018-06-29T05:13:24.646Z,57.77
2018-06-29T05:16:28.576Z,57.72
2018-06-29T05:19:33.008Z,57.00
2018-06-29T05:22:36.266Z,57.71
2018-06-29T05:25:39.497Z,57.14
2018-06-29T05:28:42.932Z,57.56
2018-06-29T05:31:46.978Z,57.26
2018-06-29T05:34:50.233Z,57.92
2018-06-29T05:37:53.488Z,57.09
2018-06-29T05:40:56.655Z,57.29
2018-06-29T05:43:59.781Z,57.30
2018-06-29T05:47:03.085Z,57.18
2018-06-29T05:50:06.666Z,56.89
2018-06-29T05:53:10.253Z,57.00
2018-06-29T05:56:13.378Z,56.61
2018-06-29T05:59:16.520Z,56.56
2018-06-29T06:02:19.719Z,56.27
2018-06-29T06:05:22.940Z,56.41
2018-06-29T06:08:26.118Z,56.00
2018-06-29T06:11:29.323Z,55.50
2018-06-29T06:14:32.495Z,55.94
2018-06-29T06:17:35.710Z,54.89
2018-06-29T06:20:38.898Z,55.44
2018-06-29T06:23:42.038Z,54.89
2018-06-29T06:26:45.291Z,54.49
2018-06-29T06:29:48.443Z,54.89
2018-06-29T06:32:51.729Z,54.79
2018-06-29T06:35:54.936Z,53.77
2018-06-29T06:38:58.154Z,53.83
2018-06-29T06:42:01.389Z,54.62
2018-06-29T06:45:05.208Z,52.66
2018-06-29T06:48:08.499Z,52.78
2018-06-29T06:51:12.602Z,51.41
2018-06-29T06:54:15.880Z,50.92
2018-06-29T06:57:19.161Z,51.23
2018-06-29T07:00:22.348Z,51.13
2018-06-29T07:03:25.619Z,50.83
2018-06-29T07:06:28.965Z,50.85
2018-06-29T07:09:32.171Z,49.03
2018-06-29T07:12:35.495Z,48.65
2018-06-29T07:15:38.716Z,48.68
2018-06-29T07:18:41.925Z,47.71
2018-06-29T07:21:45.249Z,47.95
2018-06-29T07:24:48.540Z,46.62
2018-06-29T07:27:51.832Z,47.51
2018-06-29T07:30:55.306Z,46.46
2018-06-29T07:33:58.694Z,47.49
2018-06-29T07:37:02.574Z,48.24
2018-06-29T07:40:06.391Z,46.90
2018-06-29T07:43:10.231Z,47.20
2018-06-29T07:46:14.598Z,46.42
2018-06-29T07:49:18.409Z,45.90
2018-06-29T07:52:21.992Z,46.03
2018-06-29T07:55:25.969Z,45.67
2018-06-29T07:58:29.313Z,46.29
2018-06-29T08:01:32.838Z,45.58
2018-06-29T08:04:36.464Z,45.99
2018-06-29T08:07:39.908Z,45.02
2018-06-29T08:10:43.415Z,43.98
2018-06-29T08:13:46.815Z,45.33
2018-06-29T08:16:51.120Z,44.88
2018-06-29T08:19:54.550Z,43.81
2018-06-29T08:22:58.182Z,42.88
2018-06-29T08:26:13.773Z,43.92
2018-06-29T08:29:18.478Z,41.71
2018-06-29T08:32:21.951Z,42.98
2018-06-29T08:35:25.623Z,42.96
2018-06-29T08:38:30.424Z,42.28
2018-06-29T08:41:33.969Z,41.68
2018-06-29T08:44:37.444Z,41.71
2018-06-29T08:47:40.693Z,40.46
2018-06-29T08:50:43.967Z,40.21
2018-06-29T08:53:47.243Z,40.09
2018-06-29T08:56:50.494Z,39.80
2018-06-29T08:59:53.650Z,40.01
2018-06-29T09:02:56.879Z,39.23
2018-06-29T09:06:00.154Z,39.24
2018-06-29T09:09:03.605Z,40.07
2018-06-29T09:12:07.215Z,38.93
2018-06-29T09:15:10.454Z,38.62
2018-06-29T09:18:13.675Z,38.99
2018-06-29T09:21:16.900Z,38.43
2018-06-29T09:24:20.136Z,38.65
2018-06-29T09:27:23.392Z,37.58
2018-06-29T09:30:26.906Z,37.30
2018-06-29T09:33:30.270Z,37.13
2018-06-29T09:36:33.571Z,35.99
2018-06-29T09:39:36.892Z,35.59
2018-06-29T09:42:40.170Z,35.42
2018-06-29T09:45:44.687Z,35.37
2018-06-29T09:48:47.920Z,34.32
2018-06-29T09:51:51.200Z,35.06
2018-06-29T09:54:54.580Z,34.96
2018-06-29T09:57:57.789Z,34.84
2018-06-29T10:01:01.008Z,35.61
2018-06-29T10:04:04.397Z,35.03
2018-06-29T10:07:07.704Z,34.26
2018-06-29T10:10:10.923Z,34.48
2018-06-29T10:13:14.193Z,33.03
2018-06-29T10:16:17.379Z,33.07
2018-06-29T10:19:20.637Z,32.21
2018-06-29T10:22:23.877Z,33.23
2018-06-29T10:25:27.202Z,32.75
2018-06-29T10:28:31.053Z,32.25
2018-06-29T10:31:34.477Z,32.42
2018-06-29T10:34:38.128Z,33.44
2018-06-29T10:37:41.658Z,32.93
2018-06-29T10:40:45.101Z,33.23
2018-06-29T10:43:48.541Z,32.70
2018-06-29T10:46:51.735Z,32.57
2018-06-29T10:49:55.029Z,33.01
2018-06-29T10:52:58.346Z,32.53
2018-06-29T10:56:01.725Z,31.97
2018-06-29T10:59:05.017Z,31.58
2018-06-29T11:02:08.408Z,31.20
2018-06-29T11:05:11.881Z,31.01
2018-06-29T11:08:15.324Z,32.22
2018-06-29T11:11:19.413Z,32.22
2018-06-29T11:14:23.287Z,30.92
2018-06-29T11:17:26.688Z,30.00
2018-06-29T11:20:29.950Z,31.21
2018-06-29T11:23:33.428Z,31.96
2018-06-29T11:26:36.790Z,31.79
2018-06-29T11:29:40.228Z,31.43
2018-06-29T11:32:43.467Z,32.19
2018-06-29T11:35:46.776Z,32.15
2018-06-29T11:38:50.083Z,31.32
2018-06-29T11:41:53.455Z,31.71
2018-06-29T11:44:56.936Z,32.32
2018-06-29T11:48:00.182Z,31.83
2018-06-29T11:51:03.538Z,32.54
2018-06-29T11:54:07.335Z,31.19
2018-06-29T11:57:10.720Z,32.06
2018-06-29T12:00:14.756Z,30.50
2018-06-29T12:03:18.108Z,29.82
2018-06-29T12:06:21.463Z,29.42
2018-06-29T12:09:24.802Z,29.13
2018-06-29T12:12:28.877Z,28.66
2018-06-29T12:15:32.254Z,29.14
2018-06-29T12:18:35.837Z,29.21
2018-06-29T12:21:40.263Z,29.81
2018-06-29T12:24:44.542Z,29.44
2018-06-29T12:27:48.373Z,29.82
2018-06-29T12:30:54.610Z,29.85
2018-06-29T12:33:58.131Z,29.31
2018-06-29T12:37:01.369Z,28.74
2018-06-29T12:40:04.787Z,29.18
2018-06-29T12:43:08.666Z,30.26
2018-06-29T12:46:13.160Z,30.35
2018-06-29T12:49:23.142Z,28.47
2018-06-29T12:52:26.583Z,29.47
2018-06-29T12:55:29.929Z,28.65
2018-06-29T12:58:33.352Z,28.98
2018-06-29T13:01:36.724Z,28.26
2018-06-29T13:04:40.201Z,28.18
2018-06-29T13:07:43.484Z,28.24
2018-06-29T13:10:49.043Z,28.40
2018-06-29T13:14:27.476Z,27.63
2018-06-29T13:17:31.118Z,27.94
2018-06-29T13:20:46.372Z,28.13
2018-06-29T13:24:05.996Z,28.29
2018-06-29T13:27:24.437Z,27.35
2018-06-29T13:30:34.507Z,28.00
2018-06-29T13:33:38.050Z,27.28
2018-06-29T13:36:41.307Z,27.68
2018-06-29T13:43:32.078Z,27.17
2018-06-29T13:46:48.150Z,26.83
2018-06-29T13:50:03.131Z,27.37
2018-06-29T13:57:27.965Z,27.40
2018-06-29T14:00:39.143Z,27.97
2018-06-29T14:10:35.409Z,27.82
2018-06-29T14:14:19.089Z,27.76
2018-06-29T14:17:36.029Z,28.11
2018-06-29T14:24:10.288Z,28.65
2018-06-29T14:27:37.285Z,29.20
2018-06-29T14:31:05.987Z,28.31
2018-06-29T14:36:38.669Z,27.97
2018-06-29T14:40:15.175Z,27.93
2018-06-29T14:43:41.238Z,28.96
2018-06-29T14:50:06.997Z,30.95
2018-06-29T14:53:18.399Z,31.29
2018-06-29T14:56:24.810Z,32.19
2018-06-29T15:00:03.404Z,32.35
2018-06-29T15:03:06.815Z,33.05
2018-06-29T15:06:10.264Z,32.49
2018-06-29T15:09:13.585Z,33.87
2018-06-29T15:12:16.930Z,33.91
2018-06-29T15:15:20.324Z,33.88
2018-06-29T15:18:23.851Z,33.10
2018-06-29T15:21:27.285Z,32.98
2018-06-29T15:24:30.962Z,35.40
2018-06-29T15:27:34.866Z,36.76
2018-06-29T15:30:38.552Z,39.62
2018-06-29T15:33:42.032Z,39.67
2018-06-29T15:36:45.523Z,42.10
2018-06-29T15:39:49.266Z,42.08
2018-06-29T15:42:53.916Z,43.54
2018-06-29T15:45:57.558Z,45.07
2018-06-29T15:49:00.995Z,43.78
2018-06-29T15:52:06.194Z,44.46
2018-06-29T15:55:09.795Z,45.37
2018-06-29T15:58:15.558Z,45.39
2018-06-29T16:01:18.863Z,45.80
2018-06-29T16:04:22.242Z,46.01
2018-06-29T16:07:25.716Z,45.45
2018-06-29T16:10:29.063Z,44.88
2018-06-29T16:13:32.360Z,45.68
2018-06-29T16:16:35.902Z,45.34
2018-06-29T16:19:40.054Z,45.22
2018-06-29T16:22:43.457Z,45.90
2018-06-29T16:25:46.812Z,46.06
2018-06-29T16:28:50.255Z,45.24
2018-06-29T16:31:53.552Z,44.51
2018-06-29T16:34:57.723Z,45.42
2018-06-29T16:38:01.250Z,45.45
2018-06-29T16:41:04.753Z,45.30
2018-06-29T16:44:08.271Z,45.05
2018-06-29T16:47:11.930Z,44.93
2018-06-29T16:50:15.753Z,44.81
2018-06-29T16:53:19.254Z,45.12
2018-06-29T16:56:22.700Z,44.87
2018-06-29T16:59:26.318Z,44.48
2018-06-29T17:02:29.851Z,45.05
2018-06-29T17:05:33.488Z,45.45
2018-06-29T17:08:37.105Z,44.42
2018-06-29T17:11:40.514Z,45.08
2018-06-29T17:14:43.981Z,45.37
2018-06-29T17:17:47.752Z,45.36
2018-06-29T17:20:51.328Z,45.06
2018-06-29T17:23:54.775Z,45.21
2018-06-29T17:26:58.468Z,44.64
2018-06-29T17:30:01.919Z,44.84
2018-06-29T17:33:05.491Z,45.08
2018-06-29T17:36:08.870Z,45.25
2018-06-29T17:39:12.891Z,46.37
2018-06-29T17:42:16.754Z,45.99
2018-06-29T17:45:20.494Z,45.89
2018-06-29T17:48:24.540Z,45.37
2018-06-29T17:51:28.740Z,46.38
2018-06-29T17:54:32.536Z,46.02
2018-06-29T17:57:36.125Z,46.85
2018-06-29T18:00:39.822Z,46.85
2018-06-29T18:03:48.917Z,46.93
2018-06-29T18:06:52.678Z,47.88
2018-06-29T18:09:56.601Z,47.05
2018-06-29T18:13:01.265Z,47.75
2018-06-29T18:16:07.652Z,47.03
2018-06-29T18:19:17.864Z,48.21
2018-06-29T18:22:21.889Z,47.25
2018-06-29T18:25:25.650Z,48.29
2018-06-29T18:28:29.176Z,48.24
2018-06-29T18:31:33.472Z,47.64
2018-06-29T18:34:37.587Z,48.14
2018-06-29T18:37:41.159Z,47.99
2018-06-29T18:40:44.979Z,47.97
2018-06-29T18:43:48.774Z,48.39
2018-06-29T18:46:52.722Z,48.42
2018-06-29T18:49:56.531Z,47.89
2018-06-29T18:53:01.132Z,48.01
2018-06-29T18:56:05.536Z,47.58
2018-06-29T18:59:09.244Z,48.39
2018-06-29T19:02:12.869Z,48.61
2018-06-29T19:05:16.664Z,48.74
2018-06-29T19:08:20.384Z,48.36
2018-06-29T19:11:24.496Z,48.15
2018-06-29T19:14:28.493Z,48.75
2018-06-29T19:17:32.452Z,48.06
2018-06-29T19:20:36.101Z,48.34
2018-06-29T19:23:39.854Z,48.65
2018-06-29T19:26:43.454Z,48.03
2018-06-29T19:29:47.270Z,47.78
2018-06-29T19:32:51.096Z,48.34
2018-06-29T19:35:54.629Z,48.50
2018-06-29T19:38:58.305Z,48.18
2018-06-29T19:42:01.994Z,48.52
2018-06-29T19:45:05.671Z,49.78
2018-06-29T19:48:09.209Z,50.35
2018-06-29T19:51:12.841Z,50.02
2018-06-29T19:54:16.813Z,50.46
2018-06-29T19:57:21.011Z,50.70
2018-06-29T20:00:24.406Z,51.81
2018-06-29T20:03:28.001Z,51.58
2018-06-29T20:06:31.368Z,50.93
2018-06-29T20:09:35.085Z,51.14
2018-06-29T20:12:38.781Z,51.29
2018-06-29T20:15:42.117Z,51.89
2018-06-29T20:18:45.805Z,51.86
2018-06-29T20:21:49.559Z,51.55
2018-06-29T20:24:52.969Z,53.18
2018-06-29T20:27:56.557Z,53.12
2018-06-29T20:30:59.979Z,53.49
2018-06-29T20:34:03.473Z,54.03
2018-06-29T20:37:07.207Z,52.79
2018-06-29T20:40:11.289Z,52.45
2018-06-29T20:43:16.257Z,53.85
2018-06-29T20:46:19.852Z,53.17
2018-06-29T20:49:24.232Z,54.67
2018-06-29T20:52:27.751Z,54.69
2018-06-29T20:55:31.233Z,53.94
2018-06-29T20:58:34.967Z,54.21
2018-06-29T21:01:38.430Z,54.64
2018-06-29T21:04:41.969Z,54.09
2018-06-29T21:07:45.404Z,53.94
2018-06-29T21:10:48.993Z,53.83
2018-06-29T21:13:54.733Z,54.34
2018-06-29T21:16:59.801Z,54.10
2018-06-29T21:20:03.259Z,54.72
2018-06-29T21:23:07.325Z,54.77
2018-06-29T21:26:11.289Z,54.57
2018-06-29T21:29:14.692Z,54.86
2018-06-29T21:32:18.083Z,54.99
2018-06-29T21:35:21.720Z,54.58
2018-06-29T21:38:25.306Z,56.13
2018-06-29T21:41:28.679Z,55.77
2018-06-29T21:44:32.096Z,55.79
2018-06-29T21:47:35.778Z,55.21
2018-06-29T21:50:39.235Z,56.85
2018-06-29T21:53:42.609Z,55.65
2018-06-29T21:56:46.011Z,55.77
2018-06-29T21:59:49.300Z,55.38
2018-06-29T22:02:52.711Z,54.99
2018-06-29T22:05:56.144Z,55.22
2018-06-29T22:08:59.586Z,56.08
2018-06-29T22:12:02.916Z,55.23
2018-06-29T22:15:10.600Z,55.48
2018-06-29T22:18:13.825Z,55.37
2018-06-29T22:21:17.171Z,55.37
2018-06-29T22:24:20.472Z,55.19
2018-06-29T22:27:23.736Z,56.55
2018-06-29T22:30:27.027Z,56.03
2018-06-29T22:33:30.357Z,57.06
2018-06-29T22:36:33.633Z,56.86
2018-06-29T22:39:36.995Z,56.28
2018-06-29T22:42:40.192Z,56.42
2018-06-29T22:45:43.464Z,56.06
2018-06-29T22:48:46.745Z,55.45
2018-06-29T22:51:50.035Z,55.56
2018-06-29T22:54:53.366Z,55.31
2018-06-29T22:57:56.613Z,56.02
2018-06-29T23:00:59.953Z,55.20
2018-06-29T23:04:03.179Z,56.33
2018-06-29T23:07:06.390Z,55.53
2018-06-29T23:10:09.780Z,54.78
2018-06-29T23:13:12.992Z,55.52
2018-06-29T23:16:16.536Z,55.73
2018-06-29T23:19:19.794Z,54.76
2018-06-29T23:22:22.980Z,55.42
2018-06-29T23:25:26.154Z,55.41
2018-06-29T23:28:29.749Z,56.38
2018-06-29T23:31:32.946Z,55.29
2018-06-29T23:34:47.206Z,56.20
2018-06-29T23:37:54.533Z,55.22
2018-06-29T23:41:06.498Z,55.75
2018-06-29T23:44:29.962Z,55.52
2018-06-29T23:47:35.119Z,55.60
2018-06-29T23:50:42.928Z,55.73
2018-06-29T23:53:48.268Z,55.92
2018-06-29T23:56:51.511Z,56.01
2018-06-29T23:59:55.295Z,56.64
